Time;durP1;ratioP1;P1;durP2;ratioP2;P2;SDS_P1;SDS_P2;PMS_P1;PMS_P2;Temp;Humidity;BMP_temperature;BMP_pressure;BME280_temperature;BME280_humidity;BME280_pressure;Samples;Min_cycle;Max_cycle;Signal;HPM_P1;HPM_P2
2024/03/04 00:00:12;;;;;;;3.97;1.83;;;;;;;5.82;100.00;94487.91;1038983;28;20025;-65
2024/03/04 00:00:43;;;;;;;5.65;1.70;;;;;;;5.79;100.00;94483.22;1040101;28;20036;-65
2024/03/04 00:01:13;;;;;;;3.85;2.03;;;;;;;5.80;100.00;94487.41;1038966;28;20120;-65
2024/03/04 00:01:44;;;;;;;3.40;1.90;;;;;;;5.78;100.00;94480.91;1034959;28;20053;-62
2024/03/04 00:02:15;;;;;;;5.43;2.13;;;;;;;5.80;100.00;94486.59;1036689;28;20022;-64
2024/03/04 00:02:45;;;;;;;2.95;1.88;;;;;;;5.78;100.00;94484.28;1034926;28;20584;-64
2024/03/04 00:03:16;;;;;;;4.63;2.30;;;;;;;5.77;100.00;94490.53;1039042;28;20029;-65
2024/03/04 00:03:47;;;;;;;3.13;1.80;;;;;;;5.77;100.00;94485.34;1039261;28;20033;-65
2024/03/04 00:04:17;;;;;;;3.13;1.80;;;;;;;5.78;100.00;94491.31;1042722;28;20036;-64
2024/03/04 00:04:49;;;;;;;2.10;1.70;;;;;;;5.74;100.00;94485.84;1043198;28;20044;-64
2024/03/04 00:05:19;;;;;;;3.80;2.10;;;;;;;5.72;100.00;94493.13;1043060;28;20021;-64
2024/03/04 00:05:50;;;;;;;2.92;2.17;;;;;;;5.70;100.00;94495.25;1042958;28;20021;-63
2024/03/04 00:06:20;;;;;;;3.10;1.73;;;;;;;5.70;100.00;94487.44;1035086;28;20025;-65
2024/03/04 00:06:51;;;;;;;3.60;1.75;;;;;;;5.68;100.00;94484.31;1038861;28;20432;-63
2024/03/04 00:07:21;;;;;;;2.83;1.83;;;;;;;5.70;100.00;94495.25;1039005;28;20149;-65
2024/03/04 00:07:56;;;;;;;3.55;1.85;;;;;;;5.69;100.00;94493.66;1038836;28;20034;-64
2024/03/04 00:08:28;;;;;;;6.00;2.13;;;;;;;5.68;100.00;94492.09;1043074;28;20056;-64
2024/03/04 00:08:58;;;;;;;3.13;1.90;;;;;;;5.65;100.00;94493.41;1042780;28;20032;-65
2024/03/04 00:09:29;;;;;;;2.85;1.73;;;;;;;5.65;100.00;94493.41;1038599;28;20033;-65
2024/03/04 00:10:00;;;;;;;3.40;1.75;;;;;;;5.66;100.00;94494.19;1042702;28;20025;-64
2024/03/04 00:10:31;;;;;;;5.15;2.25;;;;;;;5.66;100.00;94492.34;1042794;28;20041;-65
2024/03/04 00:11:01;;;;;;;3.03;1.85;;;;;;;5.62;100.00;94493.16;1042177;28;20039;-65
2024/03/04 00:11:32;;;;;;;4.13;2.00;;;;;;;5.63;100.00;94494.69;1043394;28;20024;-64
2024/03/04 00:12:05;;;;;;;3.90;2.20;;;;;;;5.65;100.00;94497.84;1039121;28;20119;-65
2024/03/04 00:12:35;;;;;;;5.45;2.10;;;;;;;5.65;100.00;94495.22;1042408;28;20021;-65
2024/03/04 00:13:06;;;;;;;2.13;1.83;;;;;;;5.61;100.00;94500.19;1043245;28;20021;-62
2024/03/04 00:13:36;;;;;;;3.97;2.20;;;;;;;5.58;100.00;94495.50;1043349;28;20028;-66
2024/03/04 00:14:07;;;;;;;5.30;2.10;;;;;;;5.56;100.00;94504.59;1043223;28;20799;-65
2024/03/04 00:14:38;;;;;;;2.90;1.80;;;;;;;5.56;100.00;94500.16;1043221;28;20021;-66
2024/03/04 00:15:09;;;;;;;4.07;2.08;;;;;;;5.53;100.00;94497.31;1043301;28;20029;-65
2024/03/04 00:15:39;;;;;;;4.80;2.42;;;;;;;5.53;100.00;94505.13;1043066;28;20282;-64
2024/03/04 00:16:09;;;;;;;4.80;2.13;;;;;;;5.49;100.00;94493.69;1042826;28;20025;-64
2024/03/04 00:16:41;;;;;;;3.78;1.90;;;;;;;5.46;100.00;94494.19;1042917;28;20272;-66
2024/03/04 00:17:12;;;;;;;3.03;1.95;;;;;;;5.46;100.00;94499.41;1042822;28;20017;-65
2024/03/04 00:17:42;;;;;;;3.90;2.15;;;;;;;5.47;100.00;94496.56;1038830;28;20021;-64
2024/03/04 00:18:13;;;;;;;3.25;1.88;;;;;;;5.43;100.00;94500.69;1034902;28;20486;-65
2024/03/04 00:18:43;;;;;;;3.03;2.10;;;;;;;5.41;100.00;94498.38;1030784;28;20454;-63
2024/03/04 00:19:18;;;;;;;4.30;2.00;;;;;;;5.40;100.00;94502.00;1033947;28;20077;-64
2024/03/04 00:19:49;;;;;;;3.80;1.80;;;;;;;5.39;100.00;94492.63;1034486;28;20025;-64
2024/03/04 00:20:19;;;;;;;3.55;2.10;;;;;;;5.38;100.00;94496.28;1030554;28;20014;-64
2024/03/04 00:20:50;;;;;;;2.80;1.92;;;;;;;5.41;100.00;94506.16;1034289;28;20022;-64
2024/03/04 00:21:20;;;;;;;4.15;2.13;;;;;;;5.38;100.00;94504.09;1039043;28;20022;-65
2024/03/04 00:21:51;;;;;;;4.50;2.13;;;;;;;5.37;100.00;94502.53;1038847;28;20014;-66
2024/03/04 00:22:21;;;;;;;2.63;1.92;;;;;;;5.33;100.00;94501.50;1038924;28;20029;-65
2024/03/04 00:22:52;;;;;;;7.05;2.25;;;;;;;5.34;100.00;94500.44;1038212;28;20738;-65
2024/03/04 00:23:22;;;;;;;2.67;1.80;;;;;;;5.31;100.00;94500.19;1038929;28;20022;-64
2024/03/04 00:23:53;;;;;;;6.25;2.10;;;;;;;5.28;100.00;94503.31;1038973;28;20460;-63
2024/03/04 00:24:24;;;;;;;5.95;2.42;;;;;;;5.24;100.00;94508.25;1041013;28;20157;-62
2024/03/04 00:24:54;;;;;;;5.93;2.25;;;;;;;5.19;100.00;94506.41;1043106;28;20021;-65
2024/03/04 00:25:25;;;;;;;3.30;2.30;;;;;;;5.16;100.00;94506.94;1042947;28;20063;-65
2024/03/04 00:25:55;;;;;;;3.28;2.20;;;;;;;5.14;100.00;94498.63;1043210;28;20435;-65
2024/03/04 00:26:26;;;;;;;3.75;2.33;;;;;;;5.13;100.00;94509.25;1043385;28;20021;-65
2024/03/04 00:26:56;;;;;;;4.25;2.60;;;;;;;5.11;100.00;94509.53;1043239;28;20373;-65
2024/03/04 00:27:27;;;;;;;6.75;2.42;;;;;;;5.10;100.00;94513.16;1042723;28;20079;-65
2024/03/04 00:27:57;;;;;;;4.47;2.40;;;;;;;5.10;100.00;94512.41;1039087;28;20048;-63
2024/03/04 00:28:28;;;;;;;6.20;2.65;;;;;;;5.09;100.00;94516.00;1038622;28;20580;-65
2024/03/04 00:28:58;;;;;;;5.47;2.25;;;;;;;5.10;100.00;94513.16;1035022;28;20033;-65
2024/03/04 00:29:29;;;;;;;3.63;1.90;;;;;;;5.11;100.00;94519.91;1034555;28;20572;-65
2024/03/04 00:29:59;;;;;;;5.57;2.17;;;;;;;5.10;100.00;94518.38;1030744;28;20563;-65
2024/03/04 00:30:29;;;;;;;2.25;1.80;;;;;;;5.07;100.00;94521.47;1026814;28;20027;-64
2024/03/04 00:31:00;;;;;;;4.40;2.25;;;;;;;5.04;100.00;94524.59;1030671;28;20018;-64
2024/03/04 00:31:30;;;;;;;4.97;2.17;;;;;;;5.03;100.00;94522.25;1038761;28;20022;-65
2024/03/04 00:32:01;;;;;;;3.42;2.22;;;;;;;5.03;100.00;94523.03;1043132;28;20439;-65
2024/03/04 00:32:31;;;;;;;4.57;2.30;;;;;;;5.07;100.00;94523.31;1038638;28;20052;-64
2024/03/04 00:33:02;;;;;;;5.80;2.30;;;;;;;5.06;100.00;94532.91;1038777;28;20025;-64
2024/03/04 00:33:32;;;;;;;3.78;2.17;;;;;;;5.11;100.00;94532.16;1038873;28;20030;-64
2024/03/04 00:34:04;;;;;;;3.85;2.08;;;;;;;5.19;100.00;94535.00;1035407;28;20064;-62
2024/03/04 00:34:34;;;;;;;4.18;2.08;;;;;;;5.20;100.00;94535.81;1041351;28;20013;-63
2024/03/04 00:35:10;;;;;;;4.45;2.30;;;;;;;5.21;100.00;94539.97;1043168;28;20256;-66
2024/03/04 00:35:41;;;;;;;3.42;2.03;;;;;;;5.23;100.00;94537.09;1043034;28;20017;-66
2024/03/04 00:36:11;;;;;;;7.45;2.47;;;;;;;5.23;100.00;94537.09;1043099;28;20477;-64
2024/03/04 00:36:44;;;;;;;3.45;2.42;;;;;;;5.22;100.00;94543.34;1042930;28;20500;-64
2024/03/04 00:37:15;;;;;;;3.92;2.08;;;;;;;5.21;100.00;94539.97;1039323;28;20049;-65
2024/03/04 00:37:46;;;;;;;4.55;2.22;;;;;;;5.22;100.00;94545.94;1042840;28;20384;-65
2024/03/04 00:38:18;;;;;;;5.38;2.10;;;;;;;5.24;100.00;94549.84;1038814;28;20267;-66
2024/03/04 00:38:51;;;;;;;5.57;2.70;;;;;;;5.27;100.00;94546.75;1035921;28;20022;-64
2024/03/04 00:39:21;;;;;;;5.68;2.67;;;;;;;5.27;100.00;94548.56;1038855;28;20035;-64
2024/03/04 00:39:52;;;;;;;5.53;2.70;;;;;;;5.23;100.00;94548.31;1039407;28;20453;-66
2024/03/04 00:40:23;;;;;;;4.95;2.40;;;;;;;5.21;100.00;94550.38;1039231;28;20079;-65
2024/03/04 00:40:54;;;;;;;4.93;2.72;;;;;;;5.17;100.00;94551.91;1040637;28;20451;-64
2024/03/04 00:41:24;;;;;;;4.40;2.25;;;;;;;5.14;100.00;94548.00;1041079;28;20263;-65
2024/03/04 00:41:55;;;;;;;5.65;2.67;;;;;;;5.12;100.00;94544.09;1037840;28;20091;-65
2024/03/04 00:42:27;;;;;;;4.50;2.60;;;;;;;5.12;100.00;94551.91;1041770;28;20381;-64
2024/03/04 00:42:57;;;;;;;8.05;2.63;;;;;;;5.12;100.00;94551.91;1042145;28;20026;-64
2024/03/04 00:43:28;;;;;;;4.30;2.65;;;;;;;5.10;100.00;94554.00;1038878;28;20029;-64
2024/03/04 00:43:58;;;;;;;4.40;2.47;;;;;;;5.12;100.00;94554.50;1043034;28;20032;-66
2024/03/04 00:44:29;;;;;;;5.70;2.80;;;;;;;5.09;100.00;94553.19;1042738;28;20067;-65
2024/03/04 00:44:59;;;;;;;5.75;3.03;;;;;;;5.10;100.00;94557.38;1042821;28;20409;-65
2024/03/04 00:45:30;;;;;;;3.88;2.35;;;;;;;5.10;100.00;94556.59;1043342;28;20087;-63
2024/03/04 00:46:02;;;;;;;5.45;2.40;;;;;;;5.09;100.00;94562.81;1042945;28;20017;-65
2024/03/04 00:46:32;;;;;;;3.60;2.45;;;;;;;5.06;100.00;94561.50;1042645;28;20029;-64
2024/03/04 00:47:03;;;;;;;5.47;2.35;;;;;;;5.06;100.00;94564.09;1040877;28;20313;-65
2024/03/04 00:47:33;;;;;;;3.20;2.30;;;;;;;5.04;100.00;94565.41;1042572;28;20045;-65
2024/03/04 00:48:04;;;;;;;3.45;2.58;;;;;;;5.08;100.00;94561.25;1042915;28;20075;-64
2024/03/04 00:48:34;;;;;;;5.70;2.47;;;;;;;5.10;100.00;94564.41;1042453;28;20072;-64
2024/03/04 00:49:05;;;;;;;5.72;2.15;;;;;;;5.13;100.00;94563.84;1043162;28;20052;-65
2024/03/04 00:49:35;;;;;;;4.20;2.10;;;;;;;5.08;100.00;94566.47;1042580;28;20712;-64
2024/03/04 00:50:06;;;;;;;4.95;2.50;;;;;;;5.07;100.00;94564.91;1042791;28;20021;-63
2024/03/04 00:50:36;;;;;;;5.20;3.00;;;;;;;5.07;100.00;94563.06;1039251;28;20067;-62
2024/03/04 00:51:07;;;;;;;4.95;3.08;;;;;;;5.06;100.00;94566.69;1039351;28;20100;-65
2024/03/04 00:51:37;;;;;;;4.65;2.95;;;;;;;5.04;100.00;94565.41;1039037;28;20022;-63
2024/03/04 00:52:08;;;;;;;8.15;3.42;;;;;;;5.01;100.00;94565.91;1038961;28;20091;-65
2024/03/04 00:52:38;;;;;;;5.10;2.80;;;;;;;4.97;100.00;94571.63;1039310;28;20021;-64
2024/03/04 00:53:09;;;;;;;5.93;2.65;;;;;;;4.92;100.00;94566.41;1039056;28;20104;-65
2024/03/04 00:53:46;;;;;;;5.68;2.60;;;;;;;4.90;100.00;94570.31;1039091;28;20021;-66
2024/03/04 00:54:18;;;;;;;4.22;2.35;;;;;;;4.84;100.00;94569.50;1041162;28;20426;-65
2024/03/04 00:54:49;;;;;;;4.03;2.35;;;;;;;4.81;100.00;94572.63;1041216;28;20271;-65
2024/03/04 00:55:19;;;;;;;2.88;2.38;;;;;;;4.80;100.00;94573.66;1043027;28;20263;-65
2024/03/04 00:55:50;;;;;;;3.78;2.28;;;;;;;4.65;100.00;94553.59;1042760;28;20017;-64
2024/03/04 00:56:21;;;;;;;3.55;2.38;;;;;;;4.79;100.00;94571.31;1038871;28;20017;-65
2024/03/04 00:56:51;;;;;;;5.35;2.92;;;;;;;4.78;100.00;94575.72;1038761;28;20087;-65
2024/03/04 00:57:22;;;;;;;4.13;2.40;;;;;;;4.75;100.00;94573.63;1042823;28;20366;-64
2024/03/04 00:57:52;;;;;;;6.10;3.03;;;;;;;4.77;100.00;94574.16;1039039;28;20151;-64
2024/03/04 00:58:23;;;;;;;4.25;2.55;;;;;;;4.76;100.00;94575.19;1038621;28;20037;-65
2024/03/04 00:58:54;;;;;;;6.00;2.60;;;;;;;4.75;100.00;94573.63;1038623;28;20040;-66
2024/03/04 00:59:26;;;;;;;3.75;2.60;;;;;;;4.78;100.00;94582.75;1038992;28;20041;-64
2024/03/04 00:59:57;;;;;;;5.18;2.70;;;;;;;4.77;100.00;94586.38;1035130;28;20057;-64
2024/03/04 01:00:27;;;;;;;5.03;2.75;;;;;;;4.73;100.00;94583.50;1034988;28;20720;-66
2024/03/04 01:00:58;;;;;;;4.03;2.53;;;;;;;4.69;100.00;94590.22;1038246;28;20064;-65
2024/03/04 01:01:29;;;;;;;6.43;2.70;;;;;;;4.69;100.00;94587.63;1034689;28;20589;-65
2024/03/04 01:01:59;;;;;;;4.63;2.42;;;;;;;4.68;100.00;94591.28;1039102;28;20043;-64
2024/03/04 01:02:30;;;;;;;3.90;2.47;;;;;;;4.68;100.00;94588.66;1038279;28;20394;-65
2024/03/04 01:03:00;;;;;;;7.50;2.65;;;;;;;4.67;100.00;94590.50;1034697;28;20030;-63
2024/03/04 01:03:31;;;;;;;6.90;2.97;;;;;;;4.67;100.00;94597.50;1030679;28;20503;-64
2024/03/04 01:04:02;;;;;;;4.60;2.75;;;;;;;4.63;100.00;94591.25;1028533;28;20037;-64
2024/03/04 01:04:36;;;;;;;3.85;2.55;;;;;;;4.60;100.00;94592.53;1034783;28;20025;-64
2024/03/04 01:05:06;;;;;;;4.53;2.40;;;;;;;4.56;100.00;94594.09;1039266;28;20021;-65
2024/03/04 01:05:37;;;;;;;5.18;3.03;;;;;;;4.56;100.00;94601.06;1041937;28;20291;-65
2024/03/04 01:06:07;;;;;;;3.97;2.55;;;;;;;4.51;100.00;94593.28;1039151;28;20091;-64
2024/03/04 01:06:38;;;;;;;6.10;2.83;;;;;;;4.47;100.00;94588.56;1038989;28;20025;-65
2024/03/04 01:07:09;;;;;;;8.10;2.72;;;;;;;4.46;100.00;94592.22;1039185;28;20678;-66
2024/03/04 01:07:39;;;;;;;4.82;2.75;;;;;;;4.42;100.00;94593.72;1038987;28;20252;-65
2024/03/04 01:08:10;;;;;;;4.30;2.55;;;;;;;4.42;100.00;94593.72;1038878;28;20036;-65
2024/03/04 01:08:42;;;;;;;4.65;2.55;;;;;;;4.40;100.00;94588.03;1039094;28;20026;-64
2024/03/04 01:09:12;;;;;;;6.97;3.75;;;;;;;4.40;100.00;94590.63;1038790;28;20064;-64
2024/03/04 01:09:43;;;;;;;4.38;2.60;;;;;;;4.39;100.00;94596.84;1038979;28;21153;-65
2024/03/04 01:10:13;;;;;;;4.78;2.42;;;;;;;4.38;100.00;94595.28;1039347;28;20385;-65
2024/03/04 01:10:45;;;;;;;3.78;2.70;;;;;;;4.40;100.00;94593.22;1037827;28;20092;-63
2024/03/04 01:11:15;;;;;;;5.80;2.70;;;;;;;4.40;100.00;94598.41;1038951;28;20386;-64
2024/03/04 01:11:46;;;;;;;4.00;2.70;;;;;;;4.44;100.00;94591.69;1038540;28;20322;-64
2024/03/04 01:12:16;;;;;;;3.95;2.58;;;;;;;4.47;100.00;94598.19;1038775;28;20037;-64
2024/03/04 01:12:47;;;;;;;6.15;3.25;;;;;;;4.46;100.00;94597.41;1038926;28;20489;-64
2024/03/04 01:13:19;;;;;;;3.97;2.72;;;;;;;4.50;100.00;94592.50;1039061;28;20025;-64
2024/03/04 01:13:49;;;;;;;5.75;2.72;;;;;;;4.48;100.00;94595.31;1039000;28;20065;-65
2024/03/04 01:14:20;;;;;;;4.68;2.92;;;;;;;4.48;100.00;94600.53;1039096;28;20624;-65
2024/03/04 01:14:50;;;;;;;3.50;2.15;;;;;;;4.51;100.00;94606.25;1038598;28;20049;-65
2024/03/04 01:15:21;;;;;;;4.63;2.75;;;;;;;4.56;100.00;94606.28;1039063;28;20033;-64
2024/03/04 01:15:51;;;;;;;3.50;2.92;;;;;;;4.55;100.00;94604.72;1035636;28;20096;-65
2024/03/04 01:16:22;;;;;;;7.22;2.95;;;;;;;4.53;100.00;94601.56;1038816;28;20441;-65
2024/03/04 01:16:52;;;;;;;5.38;3.10;;;;;;;4.53;100.00;94611.97;1038744;28;20565;-65
2024/03/04 01:17:23;;;;;;;5.20;3.08;;;;;;;4.54;100.00;94610.94;1038722;28;20017;-64
2024/03/04 01:17:53;;;;;;;3.83;2.35;;;;;;;4.52;100.00;94610.41;1038459;28;20128;-64
2024/03/04 01:18:24;;;;;;;6.50;2.92;;;;;;;4.51;100.00;94609.63;1034829;28;20884;-63
2024/03/04 01:18:56;;;;;;;4.88;2.55;;;;;;;4.49;100.00;94612.50;1034899;28;20022;-65
2024/03/04 01:19:28;;;;;;;6.75;2.72;;;;;;;4.48;100.00;94615.34;1038800;28;20345;-63
2024/03/04 01:19:58;;;;;;;6.00;2.60;;;;;;;4.42;100.00;94609.31;1038810;28;20793;-66
2024/03/04 01:20:29;;;;;;;4.88;2.78;;;;;;;4.39;100.00;94609.84;1038853;28;20272;-64
2024/03/04 01:20:59;;;;;;;5.20;2.60;;;;;;;4.39;100.00;94612.44;1038494;28;20031;-64
2024/03/04 01:21:30;;;;;;;5.45;2.85;;;;;;;4.36;100.00;94618.13;1038700;28;20028;-65
2024/03/04 01:22:00;;;;;;;6.28;2.88;;;;;;;4.36;100.00;94612.94;1038782;28;20493;-65
2024/03/04 01:22:31;;;;;;;6.45;3.00;;;;;;;4.35;100.00;94613.94;1034798;28;20038;-64
2024/03/04 01:23:01;;;;;;;7.13;2.63;;;;;;;4.34;100.00;94615.00;1030608;28;20038;-64
2024/03/04 01:23:32;;;;;;;6.03;3.13;;;;;;;4.33;100.00;94620.44;1034855;28;20026;-65
2024/03/04 01:24:06;;;;;;;5.22;2.80;;;;;;;4.31;100.00;94619.91;1034871;28;20058;-64
2024/03/04 01:24:36;;;;;;;6.07;3.30;;;;;;;4.30;100.00;94624.31;1038644;28;20834;-64
2024/03/04 01:25:07;;;;;;;6.45;2.70;;;;;;;4.30;100.00;94624.31;1039145;28;20260;-66
2024/03/04 01:25:38;;;;;;;4.22;2.70;;;;;;;4.28;100.00;94620.41;1038910;28;20033;-65
2024/03/04 01:26:09;;;;;;;4.93;2.97;;;;;;;4.25;100.00;94622.47;1034437;28;20036;-65
2024/03/04 01:26:40;;;;;;;5.13;2.40;;;;;;;4.25;100.00;94637.25;1035965;28;20306;-64
2024/03/04 01:27:11;;;;;;;4.60;2.97;;;;;;;4.25;100.00;94629.47;1038848;28;20841;-64
2024/03/04 01:27:42;;;;;;;5.65;3.10;;;;;;;4.22;100.00;94637.75;1039165;28;20029;-65
2024/03/04 01:28:12;;;;;;;4.22;2.63;;;;;;;4.24;100.00;94641.66;1042808;28;20267;-65
2024/03/04 01:28:43;;;;;;;3.72;2.63;;;;;;;4.23;100.00;94639.34;1039805;28;20026;-70
2024/03/04 01:29:13;;;;;;;5.05;3.40;;;;;;;4.23;100.00;94634.16;1041909;28;20083;-65
2024/03/04 01:29:44;;;;;;;11.98;3.53;;;;;;;4.22;100.00;94637.75;1042410;28;20400;-68
2024/03/04 01:30:14;;;;;;;7.65;3.17;;;;;;;4.20;100.00;94645.81;1038488;28;20037;-65
2024/03/04 01:30:45;;;;;;;5.47;3.30;;;;;;;4.21;100.00;94644.75;1041874;28;20025;-66
2024/03/04 01:31:18;;;;;;;4.57;3.47;;;;;;;4.20;100.00;94639.84;1042383;28;20032;-68
2024/03/04 01:31:49;;;;;;;5.60;3.05;;;;;;;4.18;100.00;94642.66;1043087;28;20138;-66
2024/03/04 01:32:21;;;;;;;5.40;3.35;;;;;;;4.16;100.00;94644.75;1043236;28;20260;-70
2024/03/04 01:32:52;;;;;;;7.82;3.08;;;;;;;4.15;100.00;94642.38;1043107;28;20315;-67
2024/03/04 01:33:23;;;;;;;6.13;3.13;;;;;;;4.16;100.00;94649.94;1043367;28;20718;-64
2024/03/04 01:33:53;;;;;;;5.22;3.35;;;;;;;4.16;100.00;94646.56;1043300;28;20045;-64
2024/03/04 01:34:24;;;;;;;5.32;3.17;;;;;;;4.15;100.00;94648.34;1043136;28;20037;-65
2024/03/04 01:34:55;;;;;;;5.35;3.17;;;;;;;4.12;100.00;94648.06;1038595;28;20022;-66
2024/03/04 01:35:26;;;;;;;5.82;3.20;;;;;;;4.13;100.00;94649.66;1034805;28;20355;-65
2024/03/04 01:35:57;;;;;;;6.10;3.15;;;;;;;4.15;100.00;94647.56;1034408;28;20015;-66
2024/03/04 01:36:27;;;;;;;6.88;3.58;;;;;;;4.12;100.00;94646.25;1034486;28;20502;-65
2024/03/04 01:36:58;;;;;;;5.20;2.90;;;;;;;4.12;100.00;94645.47;1038842;28;20034;-64
2024/03/04 01:37:28;;;;;;;5.63;2.85;;;;;;;4.11;100.00;94656.91;1037188;28;20029;-66
2024/03/04 01:37:59;;;;;;;5.20;3.33;;;;;;;4.09;100.00;94653.75;1039561;28;20018;-65
2024/03/04 01:38:30;;;;;;;6.47;3.15;;;;;;;4.11;100.00;94649.09;1039788;28;20030;-65
2024/03/04 01:39:02;;;;;;;5.72;3.13;;;;;;;4.10;100.00;94650.16;1039608;28;20276;-64
2024/03/04 01:39:33;;;;;;;5.50;3.33;;;;;;;4.09;100.00;94656.34;1039534;28;20030;-62
2024/03/04 01:40:05;;;;;;;5.80;3.17;;;;;;;4.15;100.00;94653.53;1040009;28;20263;-63
2024/03/04 01:40:36;;;;;;;6.47;3.15;;;;;;;4.15;100.00;94655.38;1038519;28;20083;-61
2024/03/04 01:41:06;;;;;;;4.78;2.97;;;;;;;4.15;100.00;94658.72;1039068;28;20998;-65
2024/03/04 01:41:37;;;;;;;4.30;2.90;;;;;;;4.13;100.00;94652.25;1039723;28;20022;-65
2024/03/04 01:42:07;;;;;;;6.00;3.15;;;;;;;4.11;100.00;94651.69;1039762;28;20033;-65
2024/03/04 01:42:38;;;;;;;4.00;2.60;;;;;;;4.12;100.00;94648.84;1039977;28;20018;-64
2024/03/04 01:43:08;;;;;;;5.32;3.00;;;;;;;4.11;100.00;94656.91;1039331;28;20022;-64
2024/03/04 01:43:39;;;;;;;6.25;3.53;;;;;;;4.10;100.00;94661.31;1031694;28;20075;-64
2024/03/04 01:44:11;;;;;;;4.97;3.22;;;;;;;4.11;100.00;94655.06;1031423;28;20060;-64
2024/03/04 01:44:41;;;;;;;6.22;3.20;;;;;;;4.11;100.00;94668.06;1031715;28;20534;-65
2024/03/04 01:45:25;;;;;;;6.85;3.28;;;;;;;4.11;100.00;94662.09;1035356;28;20260;-64
2024/03/04 01:45:55;;;;;;;5.82;3.55;;;;;;;4.09;100.00;94658.94;1035382;28;20549;-64
2024/03/04 01:46:26;;;;;;;6.30;3.20;;;;;;;4.10;100.00;94661.31;1037519;28;20296;-65
2024/03/04 01:46:57;;;;;;;7.22;3.28;;;;;;;4.12;100.00;94663.66;1041142;28;20048;-64
2024/03/04 01:47:27;;;;;;;7.45;3.55;;;;;;;4.15;100.00;94668.34;1043929;28;20052;-64
2024/03/04 01:47:59;;;;;;;6.57;3.28;;;;;;;4.18;100.00;94673.81;1043805;28;20029;-64
2024/03/04 01:48:29;;;;;;;6.03;3.35;;;;;;;4.17;100.00;94671.47;1043654;28;20025;-65
2024/03/04 01:49:00;;;;;;;6.80;3.67;;;;;;;4.15;100.00;94663.94;1039381;28;20294;-65
2024/03/04 01:49:31;;;;;;;6.93;3.50;;;;;;;4.19;100.00;94672.00;1039727;28;20029;-65
2024/03/04 01:50:01;;;;;;;6.97;3.42;;;;;;;4.16;100.00;94672.53;1035187;28;20029;-64
2024/03/04 01:50:34;;;;;;;7.32;3.25;;;;;;;4.20;100.00;94673.59;1031095;28;20034;-64
2024/03/04 01:51:05;;;;;;;7.45;3.45;;;;;;;4.22;100.00;94676.69;1030870;28;20584;-64
2024/03/04 01:51:35;;;;;;;9.15;4.07;;;;;;;4.22;100.00;94674.88;1027737;28;20277;-64
2024/03/04 01:52:06;;;;;;;5.53;3.17;;;;;;;4.22;100.00;94682.66;1028960;28;20027;-65
2024/03/04 01:52:36;;;;;;;6.18;3.10;;;;;;;4.25;100.00;94684.00;1031472;28;20030;-64
2024/03/04 01:53:07;;;;;;;7.15;3.70;;;;;;;4.25;100.00;94681.41;1031282;28;20026;-65
2024/03/04 01:53:38;;;;;;;4.90;3.58;;;;;;;4.27;100.00;94683.75;1027220;28;20034;-64
2024/03/04 01:54:08;;;;;;;5.30;3.33;;;;;;;4.25;100.00;94674.38;1027301;28;20506;-65
2024/03/04 01:54:39;;;;;;;5.53;3.47;;;;;;;4.26;100.00;94682.97;1031543;28;20333;-65
2024/03/04 01:55:09;;;;;;;6.20;3.90;;;;;;;4.26;100.00;94685.59;1039752;28;20029;-64
2024/03/04 01:55:48;;;;;;;5.25;3.78;;;;;;;4.25;100.00;94684.00;1039390;28;20017;-64
2024/03/04 01:56:18;;;;;;;6.78;4.10;;;;;;;4.26;100.00;94685.59;1031377;28;20049;-65
2024/03/04 01:56:49;;;;;;;8.02;3.47;;;;;;;4.25;100.00;94686.59;1031253;28;20269;-66
2024/03/04 01:57:19;;;;;;;7.13;3.83;;;;;;;4.27;100.00;94687.13;1028316;28;20085;-63
2024/03/04 01:57:51;;;;;;;6.13;3.42;;;;;;;4.26;100.00;94690.78;1031797;28;20018;-64
2024/03/04 01:58:21;;;;;;;7.40;3.95;;;;;;;4.30;100.00;94691.06;1031361;28;20026;-65
2024/03/04 01:58:52;;;;;;;7.43;4.18;;;;;;;4.29;100.00;94690.25;1035360;28;20765;-65
2024/03/04 01:59:22;;;;;;;9.50;4.20;;;;;;;4.29;100.00;94689.47;1039258;28;20025;-64
2024/03/04 01:59:53;;;;;;;6.80;4.20;;;;;;;4.28;100.00;94693.88;1039738;28;20022;-62
2024/03/04 02:00:23;;;;;;;5.97;3.67;;;;;;;4.28;100.00;94693.09;1039801;28;20080;-62
2024/03/04 02:00:54;;;;;;;8.02;3.95;;;;;;;4.26;100.00;94701.16;1041503;28;20036;-64
2024/03/04 02:01:25;;;;;;;6.88;4.13;;;;;;;4.24;100.00;94696.19;1039350;28;20041;-65
2024/03/04 02:01:56;;;;;;;7.25;3.78;;;;;;;4.24;100.00;94698.00;1031411;28;20042;-65
2024/03/04 02:02:26;;;;;;;6.78;3.95;;;;;;;4.25;100.00;94694.38;1027149;28;21076;-65
2024/03/04 02:02:57;;;;;;;7.80;4.43;;;;;;;4.24;100.00;94692.81;1031475;28;20033;-66
2024/03/04 02:03:29;;;;;;;9.07;4.43;;;;;;;4.24;100.00;94695.41;1036011;28;20034;-65
2024/03/04 02:03:59;;;;;;;9.85;4.20;;;;;;;4.23;100.00;94701.66;1041972;28;20475;-65
2024/03/04 02:04:30;;;;;;;8.05;4.53;;;;;;;4.23;100.00;94696.47;1039691;28;20280;-65
2024/03/04 02:05:02;;;;;;;8.27;4.60;;;;;;;4.22;100.00;94694.88;1039277;28;20091;-65
2024/03/04 02:05:33;;;;;;;8.20;4.40;;;;;;;4.23;100.00;94701.66;1030967;28;20030;-64
2024/03/04 02:06:04;;;;;;;6.90;4.43;;;;;;;4.23;100.00;94702.44;1031433;28;20273;-65
2024/03/04 02:06:34;;;;;;;10.07;4.93;;;;;;;4.22;100.00;94705.25;1027614;28;20045;-65
2024/03/04 02:07:05;;;;;;;6.57;4.53;;;;;;;4.21;100.00;94701.88;1031747;28;20026;-64
2024/03/04 02:07:38;;;;;;;7.55;4.45;;;;;;;4.22;100.00;94705.25;1035180;28;20068;-64
2024/03/04 02:08:09;;;;;;;7.72;4.40;;;;;;;4.25;100.00;94709.97;1035694;28;20068;-64
2024/03/04 02:08:39;;;;;;;8.45;4.78;;;;;;;4.25;100.00;94715.16;1039499;28;20264;-65
2024/03/04 02:09:10;;;;;;;7.78;4.63;;;;;;;4.23;100.00;94704.25;1039118;28;20252;-65
2024/03/04 02:09:40;;;;;;;9.32;4.30;;;;;;;4.24;100.00;94718.78;1035243;28;20029;-66
2024/03/04 02:10:11;;;;;;;7.55;3.92;;;;;;;4.24;100.00;94711.00;1031350;28;20059;-65
2024/03/04 02:10:44;;;;;;;8.27;3.85;;;;;;;4.24;100.00;94714.38;1031253;28;20014;-64
2024/03/04 02:11:15;;;;;;;8.27;4.68;;;;;;;4.22;100.00;94715.66;1027299;28;20946;-66
2024/03/04 02:11:45;;;;;;;7.30;4.47;;;;;;;4.21;100.00;94711.50;1027798;28;20275;-64
2024/03/04 02:12:16;;;;;;;5.78;4.13;;;;;;;4.19;100.00;94716.13;1034258;28;20034;-65
2024/03/04 02:12:47;;;;;;;8.20;4.88;;;;;;;4.17;100.00;94718.22;1035177;28;20022;-65
2024/03/04 02:13:20;;;;;;;8.43;4.43;;;;;;;4.15;100.00;94715.06;1039220;28;20022;-64
2024/03/04 02:13:52;;;;;;;8.30;4.55;;;;;;;4.15;100.00;94720.25;1037649;28;20547;-65
2024/03/04 02:14:23;;;;;;;10.82;4.80;;;;;;;4.13;100.00;94719.75;1037052;28;20257;-63
2024/03/04 02:14:54;;;;;;;8.93;4.72;;;;;;;4.15;100.00;94726.22;1042138;28;20268;-63
2024/03/04 02:15:24;;;;;;;7.53;4.22;;;;;;;4.14;100.00;94724.69;1039837;28;20276;-65
2024/03/04 02:15:55;;;;;;;8.25;4.30;;;;;;;4.15;100.00;94730.66;1033659;28;20022;-63
2024/03/04 02:16:25;;;;;;;7.32;4.35;;;;;;;4.15;100.00;94731.41;1027276;28;20030;-66
2024/03/04 02:16:56;;;;;;;7.60;4.03;;;;;;;4.18;100.00;94730.16;1027606;28;20042;-64
2024/03/04 02:17:27;;;;;;;8.32;4.38;;;;;;;4.18;100.00;94730.94;1031320;28;20037;-64
2024/03/04 02:17:57;;;;;;;12.80;4.43;;;;;;;4.16;100.00;94724.44;1039367;28;20060;-65
2024/03/04 02:18:28;;;;;;;8.65;4.30;;;;;;;4.16;100.00;94721.84;1031298;28;20300;-64
2024/03/04 02:18:58;;;;;;;8.02;4.28;;;;;;;4.14;100.00;94724.69;1027224;28;20026;-64
2024/03/04 02:19:30;;;;;;;7.75;4.28;;;;;;;4.12;100.00;94725.94;1029996;28;20022;-65
2024/03/04 02:20:19;;;;;;;11.27;4.55;;;;;;;4.10;100.00;94722.84;1024056;28;20058;-66
2024/03/04 02:20:53;;;;;;;7.70;4.00;;;;;;;4.09;100.00;94726.44;1037327;28;20272;-64
2024/03/04 02:21:23;;;;;;;6.55;3.80;;;;;;;4.06;100.00;94722.53;1035040;28;20268;-65
2024/03/04 02:22:01;;;;;;;7.20;3.90;;;;;;;4.03;100.00;94723.03;1037275;28;20271;-65
2024/03/04 02:22:32;;;;;;;9.07;4.30;;;;;;;3.91;100.00;94705.00;1034127;28;20477;-63
2024/03/04 02:23:03;;;;;;;8.95;4.53;;;;;;;4.00;100.00;94719.09;1034224;28;20264;-64
2024/03/04 02:23:33;;;;;;;9.93;4.32;;;;;;;3.97;100.00;94716.22;1035469;28;20021;-65
2024/03/04 02:24:04;;;;;;;8.85;4.20;;;;;;;3.97;100.00;94716.22;1035749;28;20264;-61
2024/03/04 02:24:34;;;;;;;6.10;4.03;;;;;;;3.94;100.00;94717.50;1039482;28;20025;-65
2024/03/04 02:25:05;;;;;;;9.75;4.65;;;;;;;3.93;100.00;94713.34;1039973;28;20029;-64
2024/03/04 02:25:36;;;;;;;7.35;4.55;;;;;;;3.93;100.00;94717.75;1039633;28;20567;-65
2024/03/04 02:26:06;;;;;;;5.65;4.10;;;;;;;3.94;100.00;94714.13;1039610;28;20083;-65